This is the latest recevied weather packets stored in our database for station/object N4JTC. If no packets are shown the sender has not sent any weather packets the latest 10 day(s).
| Time | Temp. | Humidity | Pressure | Rain* | Wind** | Luminosity | Snow |
|---|---|---|---|---|---|---|---|
| 1777782303 | 17.22° C | 63% | 1017.8 hPa | 0 mm | - | 0 W/m² | - |
| 1777782003 | 17.22° C | 62% | 1017.7 hPa | 0 mm | - | 0 W/m² | - |
| 1777781703 | 17.22° C | 63% | 1017.8 hPa | 0 mm | - | 0 W/m² | - |
| 1777781403 | 17.22° C | 63% | 1017.7 hPa | 0 mm | - | 0 W/m² | - |
| 1777781103 | 17.22° C | 63% | 1017.6 hPa | 0 mm | - | 0 W/m² | - |
| 1777780802 | 17.22° C | 63% | 1017.7 hPa | 0 mm | - | 0 W/m² | - |
| 1777780503 | 17.22° C | 62% | 1017.5 hPa | 0 mm | - | 0 W/m² | - |
| 1777779903 | 17.78° C | 63% | 1017.4 hPa | 0 mm | - | 0 W/m² | - |
| 1777779602 | 17.78° C | 63% | 1017.3 hPa | 0 mm | - | 0 W/m² | - |
| 1777779303 | 17.78° C | 62% | 1017.4 hPa | 0 mm | - | 0 W/m² | - |
| 1777778703 | 17.78° C | 62% | 1017.3 hPa | 0 mm | - | 0 W/m² | - |
| 1777778103 | 18.33° C | 63% | 1017.2 hPa | 0 mm | - | 0 W/m² | - |
| 1777777803 | 18.33° C | 64% | 1017.2 hPa | 0 mm | - | 0 W/m² | - |
| 1777777504 | 17.78° C | 66% | 1017.1 hPa | 0 mm | - | 0 W/m² | - |
| 1777777202 | 18.33° C | 68% | 1017.1 hPa | 0 mm | - | 0 W/m² | - |
| 1777776902 | 18.33° C | 69% | 1016.9 hPa | 0 mm | - | 0 W/m² | - |
| 1777776604 | 18.33° C | 69% | 1017.1 hPa | 0 mm | - | 0 W/m² | - |
| 1777776302 | 18.33° C | 69% | 1017.1 hPa | 0 mm | - | 0 W/m² | - |
| 1777776003 | 18.33° C | 69% | 1017 hPa | 0 mm | - | 0 W/m² | - |
| 1777775703 | 18.89° C | 68% | 1016.8 hPa | 0 mm | - | 0 W/m² | - |
| 1777775103 | 18.89° C | 67% | 1016.5 hPa | 0 mm | - | 0 W/m² | - |
| 1777770603 | 20° C | 67% | 1015.4 hPa | 0 mm | - | 0 W/m² | - |
| 1777767903 | 21.11° C | 66% | 1014.4 hPa | 0 mm | - | 1 W/m² | - |
| 1777761303 | 23.33° C | 60% | 1013 hPa | 0 mm | - | 253 W/m² | - |
| 1777760703 | 22.78° C | 60% | 1012.9 hPa | 0 mm | - | 285 W/m² | - |
* Rain latest hour (hover to see other rain measurements)
** Current wind speed in m/s (hover to see current wind gust speed)